Latest Weather Observations for Walgett

IDN60801

Issued at 9:32 am EST Saturday 19 August 2017 (issued every 30 minutes, with the page automatically refreshed every 10 minutes)

About weather observations | Map of weather stations | Latest weather observations for NSW | Other Formats
Station Details ID: 052088 Name: WALGETT AIRPORT AWS Lat: -30.04 Lon: 148.12 Height: 133.0 m
Data from the previous 72 hours. | See also: Recent months at Walgett
Date/Time
EST
Temp
°C
App
Temp
°C
Dew
Point
°C
Rel
Hum
%
Delta-T
°C
Wind Press
QNH
hPa
Press
MSL
hPa
Rain since
9am
mm
Dir  Spd
km/h
Gust
km/h
Spd
kts
Gust
kts
19/09:30am 11.1 3.2 0.8 49 4.3 SSW 32 39 17 21 1024.2 1024.3 0.0
19/09:00am 10.6 3.1 0.9 51 4.0 SW 30 41 16 22 1024.0 1024.1 0.0
19/08:30am 9.6 3.2 0.8 54 3.6 SW 24 35 13 19 1023.9 1024.0 0.0
19/08:00am 8.1 2.5 0.1 57 3.2 WSW 19 26 10 14 1023.4 1023.5 0.0
19/07:30am 5.6 1.0 -1.1 62 2.5 WSW 13 17 7 9 1023.1 1023.2 0.0
19/07:00am 2.9 -1.4 -2.0 70 1.7 W 11 13 6 7 1022.9 1023.0 0.0
19/06:30am 3.2 -1.1 -1.9 69 1.8 WSW 11 13 6 7 1022.6 1022.7 0.0
19/06:00am 3.4 -1.3 -2.1 67 1.9 WSW 13 15 7 8 1022.4 1022.5 0.0
19/05:30am 3.4 -1.0 -2.7 64 2.1 WSW 11 13 6 7 1022.0 1022.0 0.0
19/05:00am 4.1 0.0 -3.0 60 2.5 WSW 9 13 5 7 1021.7 1021.7 0.0
19/04:30am 5.1 0.8 -2.0 60 2.6 WSW 11 15 6 8 1021.5 1021.5 0.0
19/04:00am 6.5 1.4 -1.9 55 3.1 SW 15 20 8 11 1021.2 1021.2 0.0
19/03:30am 5.2 0.4 -2.6 57 2.8 WSW 13 15 7 8 1021.2 1021.2 0.0
19/03:00am 6.1 1.7 -2.2 55 3.0 SW 11 19 6 10 1021.1 1021.1 0.0
19/02:30am 6.5 1.7 -2.6 52 3.3 SW 13 15 7 8 1021.2 1021.2 0.0
19/02:00am 7.3 2.6 -1.9 52 3.4 SW 13 20 7 11 1021.3 1021.3 0.0
19/01:30am 5.9 1.3 -4.0 49 3.5 WSW 11 15 6 8 1021.5 1021.5 0.0
19/01:00am 6.7 2.2 -3.0 50 3.5 WSW 11 13 6 7 1021.5 1021.5 0.0
19/12:30am 6.2 1.6 -3.7 49 3.5 WSW 11 13 6 7 1021.5 1021.5 0.0
19/12:00am 7.2 3.0 -3.6 46 3.9 WSW 9 13 5 7 1021.5 1021.5 0.0
 
Date/Time
EST
Temp
°C
App
Temp
°C
Dew
Point
°C
Rel
Hum
%
Delta-T
°C
Wind Press
QNH
hPa
Press
MSL
hPa
Rain since
9am
mm
Dir  Spd
km/h
Gust
km/h
Spd
kts
Gust
kts
18/11:30pm 7.5 3.0 -3.4 46 4.0 WSW 11 13 6 7 1021.4 1021.4 0.0
18/11:00pm 8.0 3.5 -3.5 44 4.2 SW 11 13 6 7 1021.5 1021.5 0.0
18/10:30pm 8.5 4.0 -3.3 43 4.3 WSW 11 13 6 7 1021.4 1021.4 0.0
18/10:00pm 8.8 3.9 -3.7 41 4.6 SW 13 17 7 9 1021.3 1021.3 0.0
18/09:30pm 9.8 4.9 -3.8 38 5.0 SW 13 15 7 8 1021.1 1021.1 0.0
18/09:00pm 9.2 4.5 -4.7 37 5.0 WSW 11 15 6 8 1020.8 1020.8 0.0
18/08:30pm 9.5 4.8 -4.8 36 5.1 WSW 11 15 6 8 1020.3 1020.3 0.0
18/08:00pm 10.5 6.2 -4.7 34 5.5 WSW 9 11 5 6 1020.1 1020.1 0.0
18/07:30pm 12.4 7.8 -3.8 32 6.2 SW 11 15 6 8 1019.8 1019.8 0.0
18/07:00pm 13.6 8.7 -3.6 30 6.6 SW 13 19 7 10 1019.3 1019.3 0.0
18/06:30pm 14.3 9.4 -3.5 29 7.0 SW 13 19 7 10 1018.8 1018.8 0.0
18/06:00pm 15.4 9.7 -3.5 27 7.5 SW 17 20 9 11 1018.4 1018.4 0.0
18/05:30pm 17.0 10.4 -3.1 25 8.2 WSW 22 32 12 17 1018.1 1018.1 0.0
18/05:00pm 17.9 10.6 -2.9 24 8.5 WSW 26 35 14 19 1017.7 1017.7 0.0
18/04:30pm 18.5 10.3 -3.6 22 9.0 WSW 30 41 16 22 1017.5 1017.5 0.0
18/04:00pm 18.9 10.2 -3.3 22 9.1 WSW 33 44 18 24 1017.0 1017.1 0.0
18/03:30pm 19.3 10.8 -2.9 22 9.3 WSW 32 46 17 25 1017.0 1017.1 0.0
18/03:01pm 19.5 12.0 -1.6 24 9.0 SW 28 46 15 25 1016.9 1017.0 0.0
18/03:00pm 19.3 11.4 -1.7 24 9.0 SW 30 46 16 25 1016.9 1017.0 0.0
18/02:30pm 19.3 11.4 -1.2 25 8.8 WSW 30 43 16 23 1017.0 1017.1 0.0
18/02:06pm 19.4 11.1 -1.7 24 9.0 WSW 32 50 17 27 1017.3 1017.3 0.0
18/02:00pm 19.6 11.3 -1.5 24 9.1 WSW 32 46 17 25 1017.1 1017.2 0.0
18/01:33pm 19.0 10.7 -1.4 25 8.7 WSW 32 50 17 27 1017.3 1017.3 0.0
18/01:30pm 19.2 10.8 -1.3 25 8.8 WSW 33 50 18 27 1017.4 1017.4 0.0
18/01:00pm 18.6 11.1 -1.3 26 8.5 W 28 41 15 22 1017.7 1017.7 0.0
18/12:30pm 18.5 11.0 -1.3 26 8.5 WSW 28 41 15 22 1018.3 1018.3 0.0
18/12:00pm 17.9 10.5 -0.4 29 7.9 W 28 43 15 23 1018.8 1018.8 0.0
18/11:30am 17.6 9.5 -0.2 30 7.7 SW 32 43 17 23 1019.3 1019.3 0.0
18/11:18am 17.4 9.3 -0.3 30 7.6 WSW 32 50 17 27 1019.4 1019.4 0.0
18/11:00am 17.0 8.7 -0.2 31 7.4 WSW 33 50 18 27 1019.6 1019.6 0.0
18/10:30am 17.0 8.7 -0.2 31 7.4 WSW 33 43 18 23 1019.7 1019.7 0.0
18/10:03am 16.3 8.2 0.0 33 7.0 SW 32 50 17 27 1019.8 1019.8 0.0
18/10:00am 16.7 9.1 0.8 34 7.0 SW 30 46 16 25 1019.8 1019.8 0.0
18/09:56am 16.6 9.5 1.1 35 6.8 SW 28 46 15 25 1019.8 1019.8 0.0
18/09:30am 15.7 7.7 0.7 36 6.5 SW 32 46 17 25 1019.7 1019.7 0.0
18/09:22am 15.4 8.3 1.2 38 6.2 SSW 28 46 15 25 1019.7 1019.7 0.0
18/09:00am 14.8 7.3 1.3 40 5.9 SSW 30 39 16 21 1019.6 1019.6 0.0
18/08:30am 14.1 7.6 0.0 38 5.9 WSW 24 33 13 18 1019.1 1019.1 0.0
18/08:00am 12.6 7.2 -1.0 39 5.5 W 17 22 9 12 1018.6 1018.6 0.0
18/07:30am 10.9 5.4 -2.1 40 5.1 W 17 20 9 11 1018.2 1018.2 0.0
18/07:00am 8.7 4.3 -2.6 45 4.2 WNW 11 15 6 8 1017.6 1017.6 0.0
18/06:30am 8.7 3.8 -3.2 43 4.4 W 13 19 7 10 1017.3 1017.3 0.0
18/06:00am 10.9 5.3 -2.5 39 5.2 W 17 22 9 12 1016.7 1016.8 0.0
18/05:30am 10.4 5.2 -2.9 39 5.1 W 15 20 8 11 1016.2 1016.3 0.0
18/05:00am 9.9 5.0 -3.4 39 5.0 W 13 17 7 9 1015.7 1015.7 0.0
18/04:30am 10.2 5.3 -3.8 37 5.2 W 13 17 7 9 1015.3 1015.3 0.0
18/04:00am 10.6 5.6 -4.2 35 5.5 W 13 17 7 9 1015.1 1015.1 0.0
18/03:30am 11.2 5.5 -4.1 34 5.7 WNW 17 19 9 10 1015.0 1015.0 0.0
18/03:00am 11.4 6.1 -3.9 34 5.7 WNW 15 20 8 11 1014.8 1014.8 0.0
18/02:30am 10.7 5.7 -4.1 35 5.5 WNW 13 15 7 8 1014.9 1014.9 0.0
18/02:00am 11.3 6.3 -4.0 34 5.7 WNW 13 17 7 9 1014.8 1014.8 0.0
18/01:30am 11.7 6.4 -4.0 33 5.9 WNW 15 20 8 11 1014.9 1014.9 0.0
18/01:00am 12.0 6.7 -3.4 34 5.9 WNW 15 20 8 11 1014.9 1014.9 0.0
18/12:30am 10.7 6.6 -3.0 38 5.2 NW 9 11 5 6 1014.9 1014.9 0.0
18/12:00am 10.9 6.5 -2.8 38 5.2 NW 11 11 6 6 1014.7 1014.7 0.0
 
Date/Time
EST
Temp
°C
App
Temp
°C
Dew
Point
°C
Rel
Hum
%
Delta-T
°C
Wind Press
QNH
hPa
Press
MSL
hPa
Rain since
9am
mm
Dir  Spd
km/h
Gust
km/h
Spd
kts
Gust
kts
17/11:30pm 11.6 7.2 -2.6 37 5.5 NW 11 13 6 7 1014.7 1014.7 0.0
17/11:00pm 12.2 7.8 -2.8 35 5.8 NW 11 13 6 7 1014.6 1014.6 0.0
17/10:30pm 13.3 9.3 -2.2 34 6.2 NW 9 11 5 6 1014.6 1014.6 0.0
17/10:00pm 13.1 8.7 -2.4 34 6.1 NW 11 13 6 7 1014.6 1014.6 0.0
17/09:30pm 13.2 8.8 -2.7 33 6.3 NW 11 15 6 8 1014.6 1014.6 0.0
17/09:00pm 14.1 10.1 -2.3 32 6.6 WNW 9 11 5 6 1014.7 1014.7 0.0
17/08:30pm 14.6 10.2 -2.3 31 6.8 WNW 11 13 6 7 1014.6 1014.6 0.0
17/08:00pm 15.1 10.3 -2.3 30 7.0 WNW 13 15 7 8 1014.3 1014.3 0.0
17/07:30pm 15.4 11.0 -2.1 30 7.1 WNW 11 15 6 8 1014.0 1014.0 0.0
17/07:00pm 15.6 11.3 -1.9 30 7.2 WNW 11 15 6 8 1013.6 1013.6 0.0
17/06:30pm 16.9 13.0 -1.7 28 7.8 NW 9 11 5 6 1013.1 1013.1 0.0
17/06:00pm 18.0 13.3 -1.8 26 8.3 WNW 13 15 7 8 1012.7 1012.7 0.0
17/05:30pm 20.1 14.6 -2.3 22 9.5 WNW 17 28 9 15 1012.4 1012.4 0.0
17/05:00pm 21.5 15.7 -1.7 21 10.1 W 19 28 10 15 1012.2 1012.2 0.0
17/04:30pm 22.0 15.6 -2.0 20 10.4 W 22 32 12 17 1012.0 1012.0 0.0
17/04:00pm 22.6 15.8 -2.2 19 10.8 WNW 24 35 13 19 1011.9 1011.9 0.0
17/03:30pm 22.8 15.6 -2.0 19 10.9 W 26 39 14 21 1011.9 1011.9 0.0
17/03:00pm 23.1 16.0 -1.1 20 10.8 WNW 26 35 14 19 1011.9 1011.9 0.0
17/02:30pm 22.9 16.9 -1.2 20 10.7 WNW 20 30 11 16 1012.0 1012.0 0.0
17/02:00pm 23.0 16.8 -0.5 21 10.6 WNW 22 32 12 17 1012.1 1012.1 0.0
17/01:30pm 22.6 16.3 -0.8 21 10.5 W 22 35 12 19 1012.5 1012.5 0.0
17/01:00pm 22.5 15.4 -0.9 21 10.4 WNW 26 33 14 18 1012.9 1012.9 0.0
17/12:30pm 22.2 16.1 0.1 23 10.0 W 22 37 12 20 1013.2 1013.2 0.0
17/12:00pm 21.4 14.4 -0.6 23 9.8 WNW 26 35 14 19 1013.7 1013.7 0.0
17/11:30am 21.3 15.1 -0.1 24 9.6 W 22 37 12 20 1014.1 1014.1 0.0
17/11:00am 20.9 14.8 0.2 25 9.3 W 22 33 12 18 1014.4 1014.4 0.0
17/10:30am 20.6 15.1 0.4 26 9.1 W 19 30 10 16 1014.8 1014.8 0.0
17/10:00am 19.9 14.3 1.4 29 8.4 WNW 20 28 11 15 1014.9 1014.9 0.0
17/09:30am 18.9 15.9 2.3 33 7.7 WNW 7 13 4 7 1014.9 1014.9 0.0
17/09:00am 17.3 14.5 3.2 39 6.5 NW 7 9 4 5 1014.6 1014.6 0.0
17/08:30am 14.6 11.7 2.5 44 5.4 WNW 7 7 4 4 1014.5 1014.5 0.0
17/08:00am 12.4 9.6 2.3 50 4.4 WNW 6 7 3 4 1014.2 1014.2 0.0
17/07:30am 8.0 6.6 3.3 72 2.0 CALM 0 0 0 0 1013.8 1013.8 0.0
17/07:00am 5.2 3.5 2.0 80 1.3 CALM 0 0 0 0 1013.5 1013.5 0.0
17/06:30am 5.5 3.9 2.5 81 1.2 CALM 0 0 0 0 1013.1 1013.1 0.0
17/06:00am 6.2 4.6 2.7 78 1.5 CALM 0 0 0 0 1012.7 1012.7 0.0
17/05:30am 6.8 4.1 2.7 75 1.7 W 6 6 3 3 1012.3 1012.3 0.0
17/05:00am 7.2 4.5 2.9 74 1.8 W 6 6 3 3 1012.0 1012.0 0.0
17/04:30am 7.9 5.1 3.0 71 2.1 W 7 7 4 4 1012.0 1012.0 0.0
17/04:00am 7.4 4.5 1.7 67 2.3 W 6 7 3 4 1011.7 1011.7 0.0
17/03:30am 8.7 6.1 3.1 68 2.4 N 6 6 3 3 1011.6 1011.6 0.0
17/03:00am 9.8 7.8 2.4 60 3.2 SW 2 7 1 4 1011.6 1011.6 0.0
17/02:30am 11.1 8.6 3.6 60 3.3 WNW 6 6 3 3 1011.9 1011.9 0.0
17/02:00am 11.5 8.8 3.5 58 3.6 WSW 7 7 4 4 1011.9 1011.9 0.0
17/01:30am 11.0 8.2 3.3 59 3.4 WSW 7 9 4 5 1012.0 1012.0 0.0
17/01:00am 11.3 8.6 3.6 59 3.4 W 7 7 4 4 1012.1 1012.1 0.0
17/12:30am 11.4 8.6 3.2 57 3.6 WSW 7 9 4 5 1012.0 1012.0 0.0
17/12:00am 11.9 9.2 3.9 58 3.6 WSW 7 9 4 5 1012.0 1012.0 0.0
 
Date/Time
EST
Temp
°C
App
Temp
°C
Dew
Point
°C
Rel
Hum
%
Delta-T
°C
Wind Press
QNH
hPa
Press
MSL
hPa
Rain since
9am
mm
Dir  Spd
km/h
Gust
km/h
Spd
kts
Gust
kts
16/11:30pm 12.2 9.6 3.4 55 3.9 SW 6 7 3 4 1011.8 1011.8 0.0
16/11:00pm 13.0 10.0 3.9 54 4.1 SW 9 11 5 6 1011.8 1011.8 0.0
16/10:30pm 14.0 10.9 3.8 50 4.7 SSW 9 13 5 7 1011.8 1011.8 0.0
16/10:00pm 15.7 12.6 3.8 45 5.5 SSW 9 11 5 6 1011.8 1011.8 0.0
16/09:30pm 17.7 14.0 4.6 42 6.3 SW 13 19 7 10 1011.4 1011.4 0.0
16/09:00pm 18.4 15.6 6.9 47 5.8 SW 11 17 6 9 1011.2 1011.2 0.0
16/08:30pm 18.4 16.0 7.2 48 5.7 SW 9 13 5 7 1011.0 1011.0 0.0
16/08:00pm 19.0 16.9 6.8 45 6.2 SW 7 11 4 6 1010.6 1010.6 0.0
16/07:30pm 21.4 18.5 8.0 42 7.0 W 13 17 7 9 1010.3 1010.3 0.0
16/07:00pm 21.5 19.3 7.7 41 7.2 W 9 11 5 6 1009.9 1009.9 0.0
16/06:30pm 22.6 20.0 7.6 38 7.9 WNW 11 15 6 8 1009.6 1009.6 0.0
16/06:00pm 23.3 19.8 7.4 36 8.4 WNW 15 22 8 12 1009.2 1009.2 0.0
16/05:30pm 24.1 19.8 7.7 35 8.7 WNW 20 26 11 14 1008.9 1008.9 0.0
16/05:00pm 24.6 20.9 8.1 35 8.9 WNW 17 24 9 13 1008.6 1008.6 0.0
16/04:30pm 25.2 21.0 8.2 34 9.1 W 20 28 11 15 1008.4 1008.4 0.0
16/04:00pm 25.8 22.2 8.3 33 9.5 W 17 30 9 16 1008.2 1008.2 0.0
16/03:30pm 26.0 21.9 8.0 32 9.7 WNW 19 24 10 13 1008.3 1008.3 0.0
16/03:00pm 26.2 21.9 7.7 31 9.9 W 20 28 11 15 1008.2 1008.2 0.0
16/02:30pm 26.0 22.3 8.0 32 9.7 WNW 17 24 9 13 1008.3 1008.3 0.0
16/02:00pm 25.4 21.9 7.1 31 9.7 WSW 15 24 8 13 1008.4 1008.4 0.0
16/01:30pm 24.9 20.5 7.5 33 9.2 W 20 30 11 16 1008.4 1008.4 0.0
16/01:00pm 24.8 21.0 7.4 33 9.2 WSW 17 32 9 17 1008.7 1008.7 0.0
16/12:30pm 24.1 21.2 8.1 36 8.5 WSW 13 26 7 14 1009.2 1009.2 0.0
16/12:00pm 23.9 20.6 7.9 36 8.5 SW 15 20 8 11 1009.7 1009.7 0.0
16/11:30am 22.7 18.6 8.0 39 7.8 SSW 19 26 10 14 1010.1 1010.1 0.0
16/11:00am 22.6 18.7 8.7 41 7.4 SSW 19 26 10 14 1010.3 1010.3 0.0
16/10:30am 21.5 17.4 8.7 44 6.8 SSW 20 26 11 14 1010.5 1010.5 0.0
16/10:00am 20.5 15.2 8.5 46 6.3 SSW 26 33 14 18 1010.8 1010.8 0.0

Other Formats:

Comma delimited format used in spreadsheet applications
http://www.bom.gov.au/fwo/IDN60801/IDN60801.95715.axf

JavaScript Object Notation format (JSON) in row-major order
http://www.bom.gov.au/fwo/IDN60801/IDN60801.95715.json